Time;durP1;ratioP1;P1;durP2;ratioP2;P2;SDS_P1;SDS_P2;PMS_P1;PMS_P2;Temp;Humidity;BMP_temperature;BMP_pressure;BME280_temperature;BME280_humidity;BME280_pressure;Samples;Min_cycle;Max_cycle;Signal;HPM_P1;HPM_P2
2023/11/28 14:10:16;;;;;;;552.63;539.40;;;;;;;;;;5070526;27;20476;-80
2023/11/28 14:12:43;;;;;;;695.00;675.30;;;;;;;;;;5048271;28;20053;-78
2023/11/28 14:15:10;;;;;;;683.80;664.60;;;;;;;;;;5047754;28;20444;-80
2023/11/28 14:17:37;;;;;;;723.65;702.08;;;;;;;;;;5047893;28;20057;-79
2023/11/28 14:20:06;;;;;;;709.75;688.70;;;;;;;;;;5047476;28;20049;-80
2023/11/28 14:22:33;;;;;;;739.85;716.85;;;;;;;;;;5047825;28;20045;-78
2023/11/28 14:25:00;;;;;;;745.78;722.65;;;;;;;;;;5048162;28;20045;-79
2023/11/28 14:27:28;;;;;;;757.38;732.47;;;;;;;;;;5048392;28;20107;-78
2023/11/28 14:29:54;;;;;;;732.78;710.28;;;;;;;;;;5047947;28;20053;-78
2023/11/28 14:32:21;;;;;;;723.22;702.28;;;;;;;;;;5048084;28;20494;-77
2023/11/28 14:34:47;;;;;;;708.42;688.42;;;;;;;;;;5047933;28;20111;-78
2023/11/28 14:37:14;;;;;;;711.58;691.50;;;;;;;;;;5045400;28;20056;-77
2023/11/28 14:39:45;;;;;;;689.75;670.88;;;;;;;;;;5041358;28;20057;-78
2023/11/28 14:42:12;;;;;;;712.58;692.63;;;;;;;;;;5047496;28;20045;-79
2023/11/28 14:44:40;;;;;;;706.70;686.92;;;;;;;;;;5047184;28;20391;-80
2023/11/28 14:47:06;;;;;;;696.53;676.88;;;;;;;;;;5051532;28;20509;-78
2023/11/28 14:49:33;;;;;;;698.67;679.38;;;;;;;;;;5054970;28;20056;-79
2023/11/28 14:51:59;;;;;;;687.58;668.63;;;;;;;;;;5047898;28;20060;-79
2023/11/28 14:54:26;;;;;;;701.90;682.05;;;;;;;;;;5047669;28;20049;-79
2023/11/28 14:56:53;;;;;;;701.53;681.83;;;;;;;;;;5048087;28;20053;-78
2023/11/28 14:59:19;;;;;;;702.83;683.22;;;;;;;;;;5047234;28;20056;-78
2023/11/28 15:01:48;;;;;;;707.50;688.00;;;;;;;;;;5047637;28;20522;-80
2023/11/28 15:04:14;;;;;;;691.08;672.17;;;;;;;;;;5047380;28;20131;-79
2023/11/28 15:06:41;;;;;;;689.97;671.05;;;;;;;;;;5047347;28;20049;-79
2023/11/28 15:09:09;;;;;;;682.28;663.90;;;;;;;;;;5047024;28;20057;-79
2023/11/28 15:11:35;;;;;;;693.15;674.28;;;;;;;;;;5049594;28;20548;-79
2023/11/28 15:14:02;;;;;;;686.28;667.55;;;;;;;;;;5047069;28;20103;-79
2023/11/28 15:16:28;;;;;;;689.63;671.00;;;;;;;;;;5047122;28;20053;-80
2023/11/28 15:18:56;;;;;;;689.22;670.45;;;;;;;;;;5047380;28;20144;-81
2023/11/28 15:21:23;;;;;;;686.03;667.40;;;;;;;;;;5034789;28;20490;-78
2023/11/28 15:23:49;;;;;;;693.20;674.20;;;;;;;;;;5033702;28;20057;-79
2023/11/28 15:26:16;;;;;;;697.92;678.72;;;;;;;;;;5033957;28;20571;-80
2023/11/28 15:28:44;;;;;;;664.85;647.25;;;;;;;;;;5033120;28;20135;-79
2023/11/28 15:31:12;;;;;;;686.00;667.47;;;;;;;;;;5033892;28;20049;-79
2023/11/28 15:33:39;;;;;;;684.20;665.88;;;;;;;;;;5033455;28;20437;-79
2023/11/28 15:36:07;;;;;;;682.00;663.50;;;;;;;;;;5033106;28;20103;-79
2023/11/28 15:38:33;;;;;;;682.67;664.25;;;;;;;;;;5030374;28;20053;-79
2023/11/28 15:41:00;;;;;;;689.90;670.92;;;;;;;;;;5030415;28;20575;-78
2023/11/28 15:43:26;;;;;;;691.30;672.38;;;;;;;;;;5032595;28;20111;-80
2023/11/28 15:45:53;;;;;;;682.83;664.35;;;;;;;;;;5033343;28;20046;-80
2023/11/28 15:48:20;;;;;;;659.30;641.85;;;;;;;;;;5031632;28;20540;-76
2023/11/28 15:50:47;;;;;;;684.00;665.58;;;;;;;;;;5032872;28;20144;-77
2023/11/28 15:53:15;;;;;;;678.50;660.17;;;;;;;;;;5035205;28;20057;-77
2023/11/28 15:55:41;;;;;;;671.33;653.30;;;;;;;;;;5032328;28;20144;-77
2023/11/28 15:58:08;;;;;;;676.10;657.63;;;;;;;;;;5034970;28;20045;-78
2023/11/28 16:00:35;;;;;;;671.67;653.58;;;;;;;;;;5043652;28;20053;-77
2023/11/28 16:03:01;;;;;;;674.90;656.78;;;;;;;;;;5030160;28;20034;-78
2023/11/28 16:05:29;;;;;;;675.88;657.50;;;;;;;;;;5032757;28;20095;-80
2023/11/28 16:07:55;;;;;;;672.85;654.63;;;;;;;;;;5034535;28;20049;-78
2023/11/28 16:10:23;;;;;;;697.72;677.88;;;;;;;;;;5032498;28;20049;-76
2023/11/28 16:12:50;;;;;;;696.08;676.40;;;;;;;;;;5032266;28;20049;-76
2023/11/28 16:15:17;;;;;;;675.50;656.92;;;;;;;;;;5031763;28;20046;-77
2023/11/28 16:17:43;;;;;;;688.42;669.33;;;;;;;;;;5032009;28;20133;-77
2023/11/28 16:20:10;;;;;;;681.97;663.38;;;;;;;;;;5029372;28;20506;-77
2023/11/28 16:22:37;;;;;;;678.17;659.63;;;;;;;;;;5016959;28;20049;-77
2023/11/28 16:25:04;;;;;;;672.50;654.38;;;;;;;;;;5027722;28;20038;-77
2023/11/28 16:27:32;;;;;;;685.47;666.67;;;;;;;;;;5032448;28;20053;-76
2023/11/28 16:29:59;;;;;;;680.70;662.03;;;;;;;;;;5030688;28;20550;-76
2023/11/28 16:32:25;;;;;;;693.03;673.85;;;;;;;;;;5023814;28;20099;-77
2023/11/28 16:34:52;;;;;;;661.55;643.83;;;;;;;;;;5032611;28;20060;-77
2023/11/28 16:37:19;;;;;;;682.03;663.35;;;;;;;;;;5032440;28;20049;-76
2023/11/28 16:39:45;;;;;;;666.75;648.70;;;;;;;;;;5032621;28;20132;-77
2023/11/28 16:42:13;;;;;;;684.95;665.83;;;;;;;;;;5032675;28;20049;-78
2023/11/28 16:44:41;;;;;;;693.90;673.90;;;;;;;;;;5032330;28;20584;-78
2023/11/28 16:47:07;;;;;;;706.65;686.13;;;;;;;;;;5032565;28;20552;-78
2023/11/28 16:49:34;;;;;;;678.42;659.92;;;;;;;;;;5032509;28;20037;-79
2023/11/28 16:52:02;;;;;;;689.13;670.08;;;;;;;;;;5029328;28;20045;-78
2023/11/28 16:54:29;;;;;;;676.75;658.13;;;;;;;;;;5031253;28;20045;-78
2023/11/28 16:56:55;;;;;;;672.40;654.05;;;;;;;;;;5028096;28;20498;-78
2023/11/28 16:59:22;;;;;;;678.63;659.92;;;;;;;;;;5051929;28;20071;-77
2023/11/28 17:01:50;;;;;;;663.80;645.80;;;;;;;;;;5051980;28;20057;-78
2023/11/28 17:04:17;;;;;;;680.25;661.75;;;;;;;;;;5052260;28;20475;-77
2023/11/28 17:06:43;;;;;;;700.90;681.33;;;;;;;;;;5052028;28;20451;-78
2023/11/28 17:09:10;;;;;;;706.05;685.47;;;;;;;;;;5051418;28;20175;-78
2023/11/28 17:11:37;;;;;;;722.83;700.72;;;;;;;;;;5051597;28;20644;-79
2023/11/28 17:14:03;;;;;;;699.13;679.10;;;;;;;;;;5038597;28;20099;-77
2023/11/28 17:16:30;;;;;;;704.88;684.72;;;;;;;;;;5043644;28;20374;-77
2023/11/28 17:19:02;;;;;;;699.42;679.67;;;;;;;;;;5052081;28;20111;-78
2023/11/28 17:21:29;;;;;;;677.78;659.08;;;;;;;;;;5051559;28;20049;-78
2023/11/28 17:23:55;;;;;;;697.05;677.53;;;;;;;;;;5051301;28;20049;-78
2023/11/28 17:26:22;;;;;;;684.63;665.60;;;;;;;;;;5051961;28;20191;-78
2023/11/28 17:28:48;;;;;;;689.05;669.97;;;;;;;;;;5051623;28;20080;-79
2023/11/28 17:31:16;;;;;;;694.88;675.45;;;;;;;;;;5032923;28;20552;-78
2023/11/28 17:33:42;;;;;;;690.63;671.58;;;;;;;;;;5029397;28;20049;-78
2023/11/28 17:36:10;;;;;;;673.90;655.70;;;;;;;;;;5031204;28;20046;-78
2023/11/28 17:38:37;;;;;;;681.65;663.03;;;;;;;;;;5031232;28;20053;-78
2023/11/28 17:41:03;;;;;;;669.03;650.97;;;;;;;;;;5031311;28;20045;-79
2023/11/28 17:43:30;;;;;;;667.38;649.53;;;;;;;;;;5030572;28;20145;-78
2023/11/28 17:45:56;;;;;;;676.33;658.13;;;;;;;;;;5031012;28;20560;-79
2023/11/28 17:48:23;;;;;;;654.88;637.67;;;;;;;;;;5024722;28;20041;-78
2023/11/28 17:50:50;;;;;;;658.90;641.67;;;;;;;;;;5014625;28;20391;-77
2023/11/28 17:53:18;;;;;;;665.95;648.35;;;;;;;;;;5031220;28;20079;-78
2023/11/28 17:55:46;;;;;;;652.10;635.10;;;;;;;;;;5030958;28;20060;-78
2023/11/28 17:58:13;;;;;;;654.30;637.17;;;;;;;;;;5030721;28;20049;-78
2023/11/28 18:00:41;;;;;;;662.17;644.83;;;;;;;;;;5031001;28;20119;-78
2023/11/28 18:03:07;;;;;;;663.88;646.40;;;;;;;;;;5031038;28;20107;-78
2023/11/28 18:05:35;;;;;;;659.67;642.28;;;;;;;;;;5030961;28;20103;-78
2023/11/28 18:08:02;;;;;;;670.00;652.03;;;;;;;;;;5030789;28;20081;-77
2023/11/28 18:10:29;;;;;;;669.90;652.13;;;;;;;;;;5030961;28;20155;-77
2023/11/28 18:12:58;;;;;;;665.90;648.25;;;;;;;;;;5030852;28;20119;-78
2023/11/28 18:15:24;;;;;;;664.13;646.40;;;;;;;;;;5027234;28;20080;-77
2023/11/28 18:17:51;;;;;;;688.70;669.95;;;;;;;;;;5030750;28;20049;-77
2023/11/28 18:20:17;;;;;;;672.65;654.53;;;;;;;;;;5030358;28;20049;-77
2023/11/28 18:22:44;;;;;;;671.95;653.97;;;;;;;;;;5030446;28;20050;-77
2023/11/28 18:25:10;;;;;;;670.38;652.28;;;;;;;;;;5030282;28;20050;-77
2023/11/28 18:27:39;;;;;;;661.33;643.53;;;;;;;;;;5030497;28;20103;-77
2023/11/28 18:30:06;;;;;;;686.47;667.22;;;;;;;;;;5030541;28;20154;-77
2023/11/28 18:32:32;;;;;;;688.80;669.47;;;;;;;;;;5030090;28;20049;-77
2023/11/28 18:34:59;;;;;;;686.53;667.10;;;;;;;;;;5030033;28;20494;-77
2023/11/28 18:37:25;;;;;;;677.95;659.03;;;;;;;;;;5030840;28;20116;-77
2023/11/28 18:39:52;;;;;;;693.30;673.65;;;;;;;;;;5030575;28;20495;-77
2023/11/28 18:42:18;;;;;;;690.63;671.20;;;;;;;;;;5030537;28;20053;-77
2023/11/28 18:44:46;;;;;;;668.78;650.53;;;;;;;;;;5030712;28;20557;-77
2023/11/28 18:47:13;;;;;;;687.03;667.78;;;;;;;;;;5030660;28;20564;-77
2023/11/28 18:49:41;;;;;;;692.17;672.67;;;;;;;;;;5030414;28;20049;-78
2023/11/28 18:52:08;;;;;;;691.13;672.08;;;;;;;;;;5030682;28;20045;-78
2023/11/28 18:54:34;;;;;;;662.42;644.58;;;;;;;;;;5029400;28;20089;-77
2023/11/28 18:57:01;;;;;;;688.13;669.17;;;;;;;;;;5031886;28;20641;-77
2023/11/28 18:59:27;;;;;;;689.22;669.92;;;;;;;;;;5032804;28;20053;-77
2023/11/28 19:01:55;;;;;;;692.75;673.22;;;;;;;;;;5034511;28;20045;-77
2023/11/28 19:04:22;;;;;;;696.45;677.17;;;;;;;;;;5034058;28;20045;-78
2023/11/28 19:06:48;;;;;;;654.25;636.97;;;;;;;;;;5033471;28;20410;-76
2023/11/28 19:09:15;;;;;;;677.67;659.17;;;;;;;;;;5032803;28;20053;-76
2023/11/28 19:11:42;;;;;;;667.22;649.35;;;;;;;;;;5033129;28;20049;-77
2023/11/28 19:14:09;;;;;;;664.13;646.38;;;;;;;;;;5031533;28;20057;-76
2023/11/28 19:16:37;;;;;;;673.17;655.08;;;;;;;;;;5034350;28;20045;-76
2023/11/28 19:19:05;;;;;;;675.85;657.40;;;;;;;;;;5033081;28;20034;-76
2023/11/28 19:21:32;;;;;;;673.75;655.38;;;;;;;;;;5032719;28;20037;-76
2023/11/28 19:23:59;;;;;;;665.13;647.40;;;;;;;;;;5033251;28;20091;-75
2023/11/28 19:26:26;;;;;;;649.50;632.50;;;;;;;;;;5033219;28;20384;-75
2023/11/28 19:28:52;;;;;;;659.92;642.67;;;;;;;;;;5032938;28;20505;-75
2023/11/28 19:31:19;;;;;;;661.30;644.17;;;;;;;;;;5030909;28;20064;-75
2023/11/28 19:33:46;;;;;;;619.50;603.92;;;;;;;;;;5035677;28;20432;-75
2023/11/28 19:36:14;;;;;;;631.60;615.40;;;;;;;;;;5039720;28;20133;-75
2023/11/28 19:38:41;;;;;;;647.92;631.20;;;;;;;;;;5033404;28;20045;-76
2023/11/28 19:41:09;;;;;;;642.67;626.25;;;;;;;;;;5032704;28;20108;-75
2023/11/28 19:43:36;;;;;;;643.45;627.13;;;;;;;;;;5032785;28;20096;-76
2023/11/28 19:46:02;;;;;;;642.97;626.42;;;;;;;;;;5032771;28;20502;-76
2023/11/28 19:48:29;;;;;;;618.97;603.50;;;;;;;;;;5032692;28;20100;-76
2023/11/28 19:50:55;;;;;;;628.45;612.58;;;;;;;;;;5029456;28;20115;-76
2023/11/28 19:53:23;;;;;;;616.08;600.60;;;;;;;;;;5045345;28;20456;-76
2023/11/28 19:55:51;;;;;;;626.05;610.33;;;;;;;;;;5053243;28;20053;-76
2023/11/28 19:58:18;;;;;;;611.58;596.38;;;;;;;;;;5052717;28;20135;-76
2023/11/28 20:00:48;;;;;;;644.15;627.92;;;;;;;;;;5032512;28;20053;-76
2023/11/28 20:03:14;;;;;;;630.15;614.33;;;;;;;;;;5026049;28;20075;-76
2023/11/28 20:05:42;;;;;;;631.47;615.63;;;;;;;;;;5025532;28;20050;-75
2023/11/28 20:08:08;;;;;;;618.70;603.17;;;;;;;;;;5028103;28;20059;-75
2023/11/28 20:10:36;;;;;;;637.33;621.28;;;;;;;;;;5032821;28;20050;-76
2023/11/28 20:13:03;;;;;;;647.08;630.63;;;;;;;;;;5031245;28;20502;-76
2023/11/28 20:15:29;;;;;;;619.60;604.10;;;;;;;;;;5032238;28;20417;-76
2023/11/28 20:17:56;;;;;;;645.55;629.25;;;;;;;;;;5032705;28;20045;-76
2023/11/28 20:20:22;;;;;;;636.70;620.65;;;;;;;;;;5032258;28;20107;-76
2023/11/28 20:22:50;;;;;;;644.28;627.85;;;;;;;;;;5032709;28;20453;-77
2023/11/28 20:25:17;;;;;;;635.38;619.22;;;;;;;;;;5032725;28;20045;-76
2023/11/28 20:27:45;;;;;;;637.05;620.78;;;;;;;;;;5032682;28;20549;-76
2023/11/28 20:30:11;;;;;;;657.28;640.25;;;;;;;;;;5032753;28;20501;-76
2023/11/28 20:32:38;;;;;;;648.75;631.97;;;;;;;;;;5031481;28;20058;-75
2023/11/28 20:35:06;;;;;;;647.65;631.08;;;;;;;;;;5030163;28;20045;-76
2023/11/28 20:37:32;;;;;;;657.40;640.25;;;;;;;;;;5032193;28;20516;-76
2023/11/28 20:39:59;;;;;;;659.38;642.10;;;;;;;;;;5025106;28;20046;-76
2023/11/28 20:42:26;;;;;;;655.50;638.38;;;;;;;;;;5032322;28;20505;-76
2023/11/28 20:44:54;;;;;;;650.03;633.22;;;;;;;;;;5031789;28;20041;-76
2023/11/28 20:47:20;;;;;;;655.08;638.13;;;;;;;;;;5031928;28;20046;-76
2023/11/28 20:49:47;;;;;;;652.72;635.92;;;;;;;;;;5030926;28;20053;-76
2023/11/28 20:52:14;;;;;;;642.42;626.03;;;;;;;;;;5031853;28;20092;-76
2023/11/28 20:54:40;;;;;;;649.78;633.03;;;;;;;;;;5031972;28;20304;-76
2023/11/28 20:57:07;;;;;;;651.50;634.53;;;;;;;;;;5029320;28;20489;-75
2023/11/28 20:59:33;;;;;;;660.75;643.17;;;;;;;;;;5032113;28;20127;-76
2023/11/28 21:02:01;;;;;;;669.65;651.92;;;;;;;;;;5031647;28;20045;-75
2023/11/28 21:04:28;;;;;;;666.90;649.33;;;;;;;;;;5029129;28;20045;-74
2023/11/28 21:06:54;;;;;;;680.70;662.58;;;;;;;;;;5029195;28;20048;-73
2023/11/28 21:09:21;;;;;;;646.97;630.40;;;;;;;;;;5027476;28;20583;-73
2023/11/28 21:11:46;;;;;;;665.80;648.40;;;;;;;;;;5031457;28;20053;-74
2023/11/28 21:14:13;;;;;;;665.95;648.65;;;;;;;;;;5031488;28;20482;-73
2023/11/28 21:16:39;;;;;;;650.25;633.50;;;;;;;;;;5031557;28;20452;-74
2023/11/28 21:19:07;;;;;;;657.42;640.33;;;;;;;;;;5030740;28;20045;-73
2023/11/28 21:21:34;;;;;;;657.40;640.33;;;;;;;;;;5031088;28;20053;-74
2023/11/28 21:24:01;;;;;;;657.28;640.38;;;;;;;;;;5028078;28;20049;-73
2023/11/28 21:26:27;;;;;;;646.25;629.63;;;;;;;;;;5033427;28;20038;-74
2023/11/28 21:28:54;;;;;;;655.90;638.97;;;;;;;;;;5031158;28;20045;-74
2023/11/28 21:31:21;;;;;;;658.35;641.40;;;;;;;;;;5031717;28;20403;-74
2023/11/28 21:33:47;;;;;;;647.70;631.15;;;;;;;;;;5030926;28;20489;-74
2023/11/28 21:36:16;;;;;;;644.05;627.58;;;;;;;;;;5031940;28;20076;-73
2023/11/28 21:38:43;;;;;;;668.10;650.72;;;;;;;;;;5031669;28;20049;-73
2023/11/28 21:41:16;;;;;;;648.05;631.53;;;;;;;;;;5031551;28;20437;-74
2023/11/28 21:43:42;;;;;;;622.38;606.72;;;;;;;;;;5028501;28;20111;-73
2023/11/28 21:46:09;;;;;;;639.35;623.17;;;;;;;;;;5040228;28;20052;-73
2023/11/28 21:48:36;;;;;;;626.83;611.03;;;;;;;;;;5051259;28;20048;-74
2023/11/28 21:51:03;;;;;;;647.20;630.72;;;;;;;;;;5051494;28;20091;-74
2023/11/28 21:53:32;;;;;;;628.55;612.80;;;;;;;;;;5051440;28;20165;-75
2023/11/28 21:55:59;;;;;;;643.30;627.17;;;;;;;;;;5051390;28;20060;-75
2023/11/28 21:58:25;;;;;;;641.00;624.92;;;;;;;;;;5051344;28;20562;-74
2023/11/28 22:00:52;;;;;;;622.13;606.63;;;;;;;;;;5045046;28;20054;-73
2023/11/28 22:03:18;;;;;;;628.50;612.80;;;;;;;;;;5030474;28;20172;-74
2023/11/28 22:05:45;;;;;;;621.10;605.63;;;;;;;;;;5030234;28;20552;-74
2023/11/28 22:08:11;;;;;;;635.13;619.28;;;;;;;;;;5028199;28;20057;-75
2023/11/28 22:10:39;;;;;;;637.50;621.47;;;;;;;;;;5030444;28;20478;-74
2023/11/28 22:13:06;;;;;;;619.97;604.60;;;;;;;;;;5030708;28;20144;-73
2023/11/28 22:15:32;;;;;;;616.50;601.13;;;;;;;;;;5030165;28;20095;-74
2023/11/28 22:17:59;;;;;;;635.13;619.20;;;;;;;;;;5025270;28;20069;-74
2023/11/28 22:20:26;;;;;;;644.22;627.95;;;;;;;;;;5030332;28;20149;-74
2023/11/28 22:22:54;;;;;;;644.17;627.88;;;;;;;;;;5030390;28;20569;-74
2023/11/28 22:25:21;;;;;;;656.13;639.47;;;;;;;;;;5030201;28;20120;-74
2023/11/28 22:27:49;;;;;;;618.00;602.60;;;;;;;;;;5030469;28;20728;-73
2023/11/28 22:30:16;;;;;;;634.15;618.28;;;;;;;;;;5031044;28;20049;-74
2023/11/28 22:32:42;;;;;;;627.20;611.67;;;;;;;;;;5033499;28;20041;-73
2023/11/28 22:35:09;;;;;;;638.47;622.53;;;;;;;;;;5030763;28;20042;-73
2023/11/28 22:37:36;;;;;;;616.53;601.22;;;;;;;;;;5033688;28;20128;-73
2023/11/28 22:40:02;;;;;;;627.05;611.50;;;;;;;;;;5034084;28;20591;-74
2023/11/28 22:42:29;;;;;;;633.90;618.05;;;;;;;;;;5033608;28;20057;-74
2023/11/28 22:44:57;;;;;;;613.72;598.58;;;;;;;;;;5033201;28;20046;-74
2023/11/28 22:47:23;;;;;;;623.35;607.90;;;;;;;;;;5033490;28;20046;-73
2023/11/28 22:49:50;;;;;;;622.20;606.67;;;;;;;;;;5033182;28;20457;-73
2023/11/28 22:52:17;;;;;;;604.00;589.28;;;;;;;;;;5030070;28;20045;-73
2023/11/28 22:54:44;;;;;;;612.25;597.15;;;;;;;;;;5035234;28;20128;-74
2023/11/28 22:57:10;;;;;;;613.20;598.05;;;;;;;;;;5033974;28;20053;-74
2023/11/28 22:59:39;;;;;;;635.60;619.67;;;;;;;;;;5033759;28;20050;-74
2023/11/28 23:02:07;;;;;;;651.17;634.67;;;;;;;;;;5033999;28;20049;-73
2023/11/28 23:04:34;;;;;;;636.17;620.20;;;;;;;;;;5033867;28;20118;-73
2023/11/28 23:07:00;;;;;;;617.28;601.97;;;;;;;;;;5034118;28;20045;-73
2023/11/28 23:09:27;;;;;;;617.17;601.85;;;;;;;;;;5033620;28;20162;-73
2023/11/28 23:11:53;;;;;;;626.10;610.53;;;;;;;;;;5030333;28;20049;-74
2023/11/28 23:14:20;;;;;;;633.45;617.63;;;;;;;;;;5033987;28;20049;-74
2023/11/28 23:16:46;;;;;;;634.95;618.92;;;;;;;;;;5032630;28;20053;-74
2023/11/28 23:19:14;;;;;;;624.92;609.28;;;;;;;;;;5033618;28;20047;-73
2023/11/28 23:21:41;;;;;;;644.83;628.55;;;;;;;;;;5033830;28;20081;-73
2023/11/28 23:24:12;;;;;;;626.22;610.45;;;;;;;;;;5033383;28;20052;-73
2023/11/28 23:26:41;;;;;;;629.17;613.38;;;;;;;;;;5033661;28;20042;-74
2023/11/28 23:29:08;;;;;;;607.25;592.17;;;;;;;;;;5030088;28;20059;-74
2023/11/28 23:31:34;;;;;;;623.95;608.33;;;;;;;;;;5033215;28;20141;-75
2023/11/28 23:34:03;;;;;;;650.75;634.25;;;;;;;;;;5033457;28;20446;-75
2023/11/28 23:36:31;;;;;;;608.83;593.67;;;;;;;;;;5032987;28;20422;-75
2023/11/28 23:38:57;;;;;;;629.13;613.42;;;;;;;;;;5033373;28;20049;-74
2023/11/28 23:41:24;;;;;;;624.72;609.22;;;;;;;;;;5033025;28;20140;-74
2023/11/28 23:43:50;;;;;;;641.25;625.30;;;;;;;;;;5033190;28;20486;-74
2023/11/28 23:46:17;;;;;;;615.35;600.15;;;;;;;;;;5031834;28;20100;-74
2023/11/28 23:48:43;;;;;;;618.20;602.92;;;;;;;;;;5035033;28;20045;-74
2023/11/28 23:51:14;;;;;;;629.58;614.08;;;;;;;;;;5054000;28;20531;-76
2023/11/28 23:53:41;;;;;;;629.88;614.25;;;;;;;;;;5053529;28;20053;-74
2023/11/28 23:56:09;;;;;;;623.67;608.15;;;;;;;;;;5053521;28;20494;-75
2023/11/28 23:58:35;;;;;;;609.20;594.10;;;;;;;;;;5053340;28;20513;-74
